Time;durP1;ratioP1;P1;durP2;ratioP2;P2;SDS_P1;SDS_P2;PMS_P1;PMS_P2;Temp;Humidity;BMP_temperature;BMP_pressure;BME280_temperature;BME280_humidity;BME280_pressure;Samples;Min_cycle;Max_cycle;Signal;HPM_P1;HPM_P2
2023/04/14 00:00:31;;;;;;;7.30;6.80;;;3.50;89.40;;;;;;4918299;29;20187;-87
2023/04/14 00:02:56;;;;;;;6.90;6.47;;;3.50;89.40;;;;;;4916440;29;20217;-87
2023/04/14 00:05:22;;;;;;;7.40;6.90;;;3.60;89.40;;;;;;4917641;29;20260;-87
2023/04/14 00:07:47;;;;;;;8.17;7.57;;;3.50;89.40;;;;;;4916552;29;20272;-87
2023/04/14 00:10:13;;;;;;;8.67;8.00;;;3.50;89.50;;;;;;4918055;29;20179;-87
2023/04/14 00:12:38;;;;;;;14.73;8.67;;;3.60;89.50;;;;;;4916353;29;20200;-87
2023/04/14 00:15:05;;;;;;;8.77;8.17;;;3.60;89.50;;;;;;4917440;29;20183;-89
2023/04/14 00:17:30;;;;;;;8.83;8.23;;;3.50;89.50;;;;;;4915958;29;20188;-88
2023/04/14 00:19:56;;;;;;;10.00;9.30;;;3.50;89.60;;;;;;4915889;29;20183;-88
2023/04/14 00:22:21;;;;;;;10.33;9.37;;;3.50;89.80;;;;;;4916865;29;20607;-88
2023/04/14 00:24:46;;;;;;;8.90;8.30;;;3.50;89.90;;;;;;4915987;29;20183;-88
2023/04/14 00:27:12;;;;;;;8.27;7.57;;;3.50;90.00;;;;;;4915827;29;20185;-88
2023/04/14 00:29:38;;;;;;;8.00;7.40;;;3.40;90.00;;;;;;4916045;29;20196;-88
2023/04/14 00:32:06;;;;;;;9.03;8.23;;;3.30;89.90;;;;;;4916987;29;20217;-88
2023/04/14 00:34:32;;;;;;;10.73;9.57;;;3.30;89.90;;;;;;4916718;29;20193;-88
2023/04/14 00:36:58;;;;;;;18.13;9.67;;;3.30;89.90;;;;;;4917358;29;20266;-89
2023/04/14 00:39:24;;;;;;;17.30;10.00;;;3.30;89.80;;;;;;4916020;29;20189;-89
2023/04/14 00:41:49;;;;;;;54.53;10.87;;;3.30;89.90;;;;;;4915956;29;20255;-88
2023/04/14 00:44:15;;;;;;;15.10;10.80;;;3.20;89.90;;;;;;4915799;29;20221;-88
2023/04/14 00:46:41;;;;;;;42.33;10.77;;;3.10;89.90;;;;;;4919773;29;20180;-88
2023/04/14 00:49:07;;;;;;;71.90;11.63;;;3.20;90.10;;;;;;4919683;29;20177;-88
2023/04/14 00:51:33;;;;;;;90.23;12.40;;;3.00;89.90;;;;;;4919940;29;20633;-88
2023/04/14 00:54:04;;;;;;;44.90;11.70;;;2.90;90.00;;;;;;4919479;29;20573;-87
2023/04/14 00:56:30;;;;;;;13.03;12.03;;;2.80;90.10;;;;;;4919677;29;20174;-88
2023/04/14 00:58:58;;;;;;;13.63;12.40;;;2.80;90.30;;;;;;4920564;29;20201;-88
2023/04/14 01:01:24;;;;;;;62.40;14.83;;;2.80;90.40;;;;;;4920515;29;20650;-88
2023/04/14 01:03:51;;;;;;;99.03;14.70;;;2.80;90.40;;;;;;4919447;29;20204;-88
2023/04/14 01:06:16;;;;;;;14.03;12.43;;;2.80;90.50;;;;;;4919766;29;20557;-86
2023/04/14 01:08:42;;;;;;;13.57;12.37;;;2.80;90.60;;;;;;4921038;29;20185;-87
2023/04/14 01:11:50;;;;;;;13.03;11.83;;;2.80;90.60;;;;;;4921080;29;20174;-87
2023/04/14 01:14:42;;;;;;;14.77;13.13;;;2.90;90.70;;;;;;4919615;29;20707;-87
2023/04/14 01:17:32;;;;;;;12.10;11.00;;;2.90;90.70;;;;;;4916430;29;20627;-87
2023/04/14 01:20:10;;;;;;;12.33;11.07;;;2.90;90.70;;;;;;4920483;29;20200;-87
2023/04/14 01:22:46;;;;;;;11.73;10.60;;;2.90;90.70;;;;;;4920161;29;20324;-87
2023/04/14 01:25:30;;;;;;;11.10;10.10;;;2.80;90.60;;;;;;4919545;29;20176;-87
2023/04/14 01:28:33;;;;;;;11.20;10.20;;;2.80;90.60;;;;;;4920766;29;20166;-87
2023/04/14 01:31:17;;;;;;;10.40;9.33;;;2.80;90.70;;;;;;4919196;29;20179;-87
2023/04/14 01:33:47;;;;;;;12.20;11.10;;;2.80;90.70;;;;;;4919946;29;20550;-87
2023/04/14 01:36:26;;;;;;;12.10;11.10;;;2.90;90.70;;;;;;4919150;29;20182;-87
2023/04/14 01:38:53;;;;;;;13.20;11.90;;;2.90;90.70;;;;;;4919587;29;20180;-87
2023/04/14 01:41:21;;;;;;;12.97;11.70;;;2.90;90.70;;;;;;4919127;29;20180;-88
2023/04/14 01:43:50;;;;;;;11.10;10.17;;;2.90;90.70;;;;;;4918852;29;20201;-87
2023/04/14 01:46:17;;;;;;;11.40;10.40;;;2.90;90.50;;;;;;4918859;29;20602;-87
2023/04/14 01:48:44;;;;;;;12.57;11.47;;;2.80;90.50;;;;;;4918825;29;20176;-87
2023/04/14 01:51:12;;;;;;;12.77;11.60;;;2.90;90.60;;;;;;4918691;29;20559;-87
2023/04/14 01:53:41;;;;;;;12.33;11.07;;;2.90;90.50;;;;;;4919728;29;20250;-87
2023/04/14 01:56:10;;;;;;;11.67;10.13;;;2.90;90.50;;;;;;4919022;29;20183;-87
2023/04/14 01:58:37;;;;;;;10.60;9.70;;;2.80;90.40;;;;;;4919708;29;20178;-87
2023/04/14 02:01:04;;;;;;;10.53;9.60;;;2.80;90.30;;;;;;4918592;29;20188;-87
2023/04/14 02:03:31;;;;;;;10.90;10.03;;;2.80;90.20;;;;;;4919495;29;20196;-87
2023/04/14 02:05:57;;;;;;;10.90;10.00;;;2.80;90.20;;;;;;4918329;29;20746;-87
2023/04/14 02:08:24;;;;;;;10.57;9.70;;;2.80;90.10;;;;;;4919656;29;20591;-87
2023/04/14 02:10:52;;;;;;;11.20;10.30;;;2.70;90.00;;;;;;4919786;29;20228;-87
2023/04/14 02:13:20;;;;;;;11.93;10.27;;;2.70;90.00;;;;;;4918798;29;20203;-87
2023/04/14 02:15:48;;;;;;;15.33;12.13;;;2.80;90.00;;;;;;4918207;29;20289;-87
2023/04/14 02:18:16;;;;;;;49.17;14.50;;;2.60;89.70;;;;;;4919250;29;20657;-87
2023/04/14 02:20:43;;;;;;;14.73;13.20;;;2.60;89.80;;;;;;4919409;29;20269;-87
2023/04/14 02:23:10;;;;;;;125.30;15.07;;;2.60;89.70;;;;;;4919010;29;20216;-87
2023/04/14 02:25:39;;;;;;;15.67;14.30;;;2.60;89.70;;;;;;4921202;29;20172;-87
2023/04/14 02:28:12;;;;;;;14.40;12.93;;;2.60;89.60;;;;;;4920651;29;20181;-87
2023/04/14 02:30:42;;;;;;;14.60;13.10;;;2.60;89.60;;;;;;4921603;29;20161;-87
2023/04/14 02:33:10;;;;;;;73.17;13.60;;;2.60;89.60;;;;;;4921251;29;20197;-87
2023/04/14 02:35:46;;;;;;;14.20;12.90;;;2.60;89.70;;;;;;4921340;29;20256;-87
2023/04/14 02:38:42;;;;;;;14.27;11.97;;;2.60;89.60;;;;;;4919651;29;20176;-87
2023/04/14 02:41:14;;;;;;;15.33;11.50;;;2.60;89.70;;;;;;4912071;29;20251;-87
2023/04/14 02:43:49;;;;;;;10.60;9.80;;;2.50;89.80;;;;;;4919751;29;20209;-87
2023/04/14 02:46:17;;;;;;;10.20;9.37;;;2.50;89.80;;;;;;4919903;29;20647;-87
2023/04/14 02:48:45;;;;;;;10.23;9.27;;;2.50;89.80;;;;;;4919857;29;20181;-88
2023/04/14 02:51:13;;;;;;;50.83;11.10;;;2.50;89.70;;;;;;4921444;29;20176;-87
2023/04/14 02:53:39;;;;;;;10.20;9.50;;;2.40;89.80;;;;;;4921563;29;20200;-87
2023/04/14 02:56:06;;;;;;;11.00;10.10;;;2.40;89.80;;;;;;4920745;29;20188;-87
2023/04/14 02:58:32;;;;;;;10.23;9.50;;;2.40;89.90;;;;;;4920007;29;20184;-87
2023/04/14 03:00:59;;;;;;;9.60;8.90;;;2.40;89.90;;;;;;4920474;29;20185;-87
2023/04/14 03:03:27;;;;;;;8.97;8.37;;;2.40;89.90;;;;;;4921624;29;20692;-87
2023/04/14 03:05:53;;;;;;;9.77;7.77;;;2.40;89.90;;;;;;4921260;29;20248;-87
2023/04/14 03:08:19;;;;;;;8.93;8.13;;;2.40;89.90;;;;;;4920280;29;20186;-87
2023/04/14 03:10:46;;;;;;;9.40;8.70;;;2.40;89.90;;;;;;4921012;29;20271;-87
2023/04/14 03:13:13;;;;;;;9.00;8.40;;;2.40;89.80;;;;;;4920369;29;20698;-88
2023/04/14 03:15:40;;;;;;;9.20;8.50;;;2.40;89.80;;;;;;4922155;29;20181;-87
2023/04/14 03:18:06;;;;;;;9.03;8.33;;;2.40;89.80;;;;;;4922487;29;20181;-87
2023/04/14 03:20:33;;;;;;;10.07;9.17;;;2.30;89.70;;;;;;4921172;29;20649;-86
2023/04/14 03:23:03;;;;;;;10.97;10.13;;;2.30;89.70;;;;;;4916541;29;20218;-86
2023/04/14 03:25:30;;;;;;;10.23;9.53;;;2.30;89.70;;;;;;4916861;29;20181;-86
2023/04/14 03:27:59;;;;;;;26.70;10.37;;;2.30;89.60;;;;;;4916730;29;20196;-86
2023/04/14 03:30:29;;;;;;;23.13;10.70;;;2.30;89.60;;;;;;4916637;29;20181;-86
2023/04/14 03:33:00;;;;;;;15.07;10.77;;;2.30;89.70;;;;;;4917884;29;20671;-86
2023/04/14 03:35:27;;;;;;;11.07;10.13;;;2.30;89.80;;;;;;4916738;29;20200;-86
2023/04/14 03:37:58;;;;;;;10.80;10.00;;;2.30;89.90;;;;;;4916764;29;20257;-87
2023/04/14 03:40:29;;;;;;;11.00;10.10;;;2.30;89.90;;;;;;4916644;29;20177;-87
2023/04/14 03:42:57;;;;;;;10.27;9.57;;;2.30;90.00;;;;;;4916308;29;20294;-86
2023/04/14 03:45:23;;;;;;;9.60;8.80;;;2.20;89.90;;;;;;4916351;29;20177;-86
2023/04/14 03:47:52;;;;;;;11.40;10.30;;;2.20;89.90;;;;;;4916612;29;20177;-86
2023/04/14 03:50:20;;;;;;;10.90;9.80;;;2.20;89.90;;;;;;4917506;29;20171;-86
2023/04/14 03:52:49;;;;;;;10.13;9.33;;;2.20;90.00;;;;;;4917385;29;20192;-86
2023/04/14 03:55:17;;;;;;;10.30;9.17;;;2.10;90.00;;;;;;4917389;29;20171;-86
2023/04/14 03:57:43;;;;;;;9.13;8.47;;;2.10;90.00;;;;;;4916169;29;20664;-86
2023/04/14 04:00:11;;;;;;;8.93;8.33;;;2.10;90.00;;;;;;4917398;29;20204;-86
2023/04/14 04:02:38;;;;;;;8.87;8.17;;;2.10;90.00;;;;;;4916019;29;20251;-86
2023/04/14 04:05:06;;;;;;;8.63;7.90;;;2.10;90.00;;;;;;4916199;29;20181;-86
2023/04/14 04:07:32;;;;;;;8.57;7.87;;;2.10;89.90;;;;;;4915944;29;20208;-86
2023/04/14 04:09:58;;;;;;;8.83;8.23;;;2.00;89.90;;;;;;4916229;29;20181;-86
2023/04/14 04:12:25;;;;;;;8.60;7.93;;;2.00;89.90;;;;;;4916067;29;20204;-86
2023/04/14 04:14:50;;;;;;;33.00;8.30;;;1.90;89.70;;;;;;4917310;29;20255;-86
2023/04/14 04:17:18;;;;;;;8.37;7.70;;;1.90;89.70;;;;;;4917329;29;20211;-86
2023/04/14 04:19:45;;;;;;;8.97;8.20;;;1.90;89.70;;;;;;4915717;29;20539;-86
2023/04/14 04:22:15;;;;;;;8.10;7.50;;;1.90;89.90;;;;;;4916046;29;20204;-86
2023/04/14 04:24:43;;;;;;;10.70;8.80;;;1.90;89.80;;;;;;4916084;29;20236;-86
2023/04/14 04:27:09;;;;;;;51.93;9.53;;;1.90;89.80;;;;;;4921763;29;20177;-85
2023/04/14 04:29:37;;;;;;;27.73;11.57;;;1.90;89.70;;;;;;4915738;29;20791;-86
2023/04/14 04:32:04;;;;;;;34.60;11.13;;;1.90;89.80;;;;;;4915650;29;20188;-85
2023/04/14 04:34:31;;;;;;;50.37;12.07;;;1.90;89.80;;;;;;4915729;29;20659;-86
2023/04/14 04:36:58;;;;;;;28.47;11.30;;;1.80;89.70;;;;;;4916952;29;20549;-86
2023/04/14 04:39:24;;;;;;;70.10;12.13;;;1.70;89.70;;;;;;4916875;29;20720;-86
2023/04/14 04:41:50;;;;;;;68.53;14.07;;;1.60;89.80;;;;;;4915665;29;20181;-86
2023/04/14 04:44:16;;;;;;;48.50;13.23;;;1.50;89.90;;;;;;4915643;29;20208;-86
2023/04/14 04:46:50;;;;;;;42.53;12.40;;;1.50;90.00;;;;;;4916556;29;20180;-86
2023/04/14 04:49:16;;;;;;;69.17;14.07;;;1.40;90.20;;;;;;4915616;29;20642;-85
2023/04/14 04:51:42;;;;;;;14.50;13.40;;;1.40;90.40;;;;;;4916910;29;20201;-86
2023/04/14 04:54:08;;;;;;;13.73;12.53;;;1.40;90.50;;;;;;4915708;29;20234;-86
2023/04/14 04:56:34;;;;;;;42.40;13.53;;;1.40;90.50;;;;;;4916832;29;20594;-85
2023/04/14 04:58:59;;;;;;;72.30;13.40;;;1.40;90.60;;;;;;4917062;29;20176;-86
2023/04/14 05:01:25;;;;;;;13.67;12.43;;;1.30;90.60;;;;;;4915589;29;20198;-86
2023/04/14 05:03:50;;;;;;;19.60;11.70;;;1.30;90.70;;;;;;4915497;29;20233;-86
2023/04/14 05:06:16;;;;;;;12.33;10.87;;;1.30;90.80;;;;;;4915561;29;20181;-85
2023/04/14 05:08:42;;;;;;;12.07;11.10;;;1.30;90.80;;;;;;4917017;29;20219;-86
2023/04/14 05:11:07;;;;;;;11.37;10.57;;;1.40;90.90;;;;;;4916702;29;20177;-86
2023/04/14 05:13:33;;;;;;;10.87;10.13;;;1.40;90.90;;;;;;4915310;29;20212;-87
2023/04/14 05:16:06;;;;;;;10.47;9.73;;;1.50;91.00;;;;;;4915424;29;20212;-86
2023/04/14 05:18:33;;;;;;;10.53;9.77;;;1.50;91.00;;;;;;4915584;29;20192;-86
2023/04/14 05:21:03;;;;;;;11.23;10.37;;;1.60;91.00;;;;;;4915526;29;20229;-86
2023/04/14 05:23:31;;;;;;;11.30;10.40;;;1.60;90.90;;;;;;4915097;29;20227;-86
2023/04/14 05:25:56;;;;;;;53.53;12.53;;;1.60;90.90;;;;;;4916552;29;20259;-86
2023/04/14 05:28:22;;;;;;;42.97;13.63;;;1.70;91.00;;;;;;4916506;29;20610;-86
2023/04/14 05:30:48;;;;;;;66.67;14.80;;;1.70;90.90;;;;;;4915376;29;20643;-86
2023/04/14 05:33:13;;;;;;;14.73;13.33;;;1.70;91.00;;;;;;4918124;29;20581;-86
2023/04/14 05:35:39;;;;;;;13.73;12.73;;;1.70;91.10;;;;;;4918792;29;20584;-86
2023/04/14 05:38:05;;;;;;;15.87;12.57;;;1.80;91.20;;;;;;4918686;29;20235;-86
2023/04/14 05:40:32;;;;;;;135.40;14.50;;;1.80;91.30;;;;;;4918630;29;20194;-85
2023/04/14 05:42:58;;;;;;;12.53;11.63;;;1.90;91.30;;;;;;4918545;29;20240;-86
2023/04/14 05:45:24;;;;;;;14.43;13.13;;;1.90;91.30;;;;;;4918590;29;20215;-86
2023/04/14 05:47:49;;;;;;;51.10;15.60;;;2.00;91.40;;;;;;4918549;29;20675;-85
2023/04/14 05:50:15;;;;;;;75.33;17.83;;;2.10;91.50;;;;;;4918768;29;20275;-86
2023/04/14 05:52:41;;;;;;;36.23;15.80;;;2.20;91.50;;;;;;4918465;29;20200;-86
2023/04/14 05:55:07;;;;;;;100.67;20.73;;;2.20;91.50;;;;;;4918418;29;20177;-86
2023/04/14 05:57:32;;;;;;;81.33;17.67;;;2.20;91.60;;;;;;4919526;29;20189;-86
2023/04/14 05:59:58;;;;;;;43.03;18.50;;;2.20;91.70;;;;;;4919475;29;20172;-86
2023/04/14 06:02:23;;;;;;;34.93;18.27;;;2.30;91.80;;;;;;4918196;29;20280;-86
2023/04/14 06:04:49;;;;;;;32.13;22.13;;;2.40;91.90;;;;;;4918111;29;20205;-86
2023/04/14 06:07:15;;;;;;;41.87;21.10;;;2.40;92.00;;;;;;4919420;29;20196;-86
2023/04/14 06:09:41;;;;;;;40.50;20.97;;;2.50;92.20;;;;;;4918201;29;20272;-86
2023/04/14 06:12:07;;;;;;;25.23;22.70;;;2.60;92.40;;;;;;4918010;29;20197;-85
2023/04/14 06:14:32;;;;;;;25.27;23.07;;;2.60;92.50;;;;;;4918085;29;20181;-86
2023/04/14 06:16:58;;;;;;;25.20;23.30;;;2.80;92.70;;;;;;4918417;29;20180;-86
2023/04/14 06:19:24;;;;;;;26.97;24.67;;;2.80;92.80;;;;;;4917978;29;20232;-87
2023/04/14 06:21:49;;;;;;;28.13;25.63;;;2.90;92.90;;;;;;4919139;29;20603;-86
2023/04/14 06:24:15;;;;;;;32.03;29.07;;;3.10;93.10;;;;;;4917801;29;20723;-87
2023/04/14 06:26:41;;;;;;;30.43;27.87;;;3.30;93.30;;;;;;4919257;29;20173;-86
2023/04/14 06:29:06;;;;;;;34.93;31.70;;;3.30;93.40;;;;;;4918999;29;20200;-87
2023/04/14 06:31:32;;;;;;;39.30;35.43;;;3.50;93.50;;;;;;4917930;29;20190;-87
2023/04/14 06:33:58;;;;;;;41.50;37.53;;;3.60;93.60;;;;;;4917768;29;20200;-87
2023/04/14 06:36:23;;;;;;;42.23;38.53;;;3.80;93.80;;;;;;4918945;29;20177;-87
2023/04/14 06:38:49;;;;;;;46.33;42.03;;;4.00;94.00;;;;;;4917690;29;20684;-87
2023/04/14 06:41:14;;;;;;;44.63;40.33;;;4.30;94.10;;;;;;4918847;29;20179;-87
2023/04/14 06:43:41;;;;;;;46.30;41.37;;;4.50;94.20;;;;;;4917280;29;20221;-87
2023/04/14 06:46:07;;;;;;;48.37;43.97;;;4.50;94.20;;;;;;4917613;29;20183;-87
2023/04/14 06:48:32;;;;;;;47.47;43.20;;;4.50;94.10;;;;;;4918787;29;20235;-87
2023/04/14 06:50:58;;;;;;;49.03;44.53;;;4.40;94.10;;;;;;4917688;29;20313;-87
2023/04/14 06:53:24;;;;;;;50.73;46.10;;;4.30;94.10;;;;;;4917803;29;20207;-87
2023/04/14 06:55:57;;;;;;;51.27;46.30;;;4.40;94.30;;;;;;4923736;29;20244;-88
2023/04/14 06:58:26;;;;;;;52.10;47.10;;;4.40;94.30;;;;;;4923025;29;20160;-87
2023/04/14 07:00:59;;;;;;;55.37;50.27;;;4.50;94.30;;;;;;4923944;29;20184;-86
2023/04/14 07:03:26;;;;;;;57.37;51.27;;;4.90;94.60;;;;;;4922929;29;20311;-87
2023/04/14 07:05:52;;;;;;;56.90;51.43;;;5.10;94.60;;;;;;4918627;29;20185;-88
2023/04/14 07:08:19;;;;;;;58.53;52.87;;;5.30;94.60;;;;;;4917253;29;20561;-87
2023/04/14 07:10:45;;;;;;;57.13;51.80;;;5.30;94.50;;;;;;4917374;29;20177;-87
2023/04/14 07:13:10;;;;;;;59.60;53.63;;;5.30;94.60;;;;;;4917143;29;20201;-87
2023/04/14 07:15:36;;;;;;;61.37;55.60;;;5.50;94.60;;;;;;4917156;29;20291;-87
2023/04/14 07:18:02;;;;;;;62.40;56.40;;;5.40;94.60;;;;;;4916992;29;20223;-87
2023/04/14 07:20:28;;;;;;;60.70;55.30;;;5.80;94.80;;;;;;4916982;29;20208;-87
2023/04/14 07:22:54;;;;;;;58.57;53.27;;;6.00;94.80;;;;;;4916845;29;20263;-87
2023/04/14 07:25:20;;;;;;;61.33;55.63;;;6.20;94.80;;;;;;4919009;29;20256;-87
2023/04/14 07:27:46;;;;;;;57.00;52.20;;;6.30;94.70;;;;;;4918333;29;20232;-87
2023/04/14 07:30:12;;;;;;;55.17;49.53;;;6.40;94.60;;;;;;4916963;29;20176;-87
2023/04/14 07:32:37;;;;;;;52.20;47.30;;;6.50;94.70;;;;;;4916827;29;20288;-87
2023/04/14 07:35:04;;;;;;;48.03;43.80;;;6.60;94.60;;;;;;4916967;29;20267;-88
2023/04/14 07:37:30;;;;;;;43.40;38.80;;;6.70;94.50;;;;;;4918126;29;20221;-88
2023/04/14 07:39:56;;;;;;;35.67;32.03;;;6.80;94.40;;;;;;4916605;29;20220;-88
2023/04/14 07:42:21;;;;;;;34.43;31.10;;;6.70;94.20;;;;;;4916595;29;20196;-88
2023/04/14 07:44:47;;;;;;;36.60;32.97;;;6.80;94.10;;;;;;4916485;29;20204;-88
2023/04/14 07:47:12;;;;;;;33.37;30.03;;;6.90;94.00;;;;;;4916718;29;20236;-87
2023/04/14 07:49:38;;;;;;;31.67;29.00;;;7.00;93.90;;;;;;4916600;29;20213;-88
2023/04/14 07:52:03;;;;;;;30.70;27.83;;;7.30;93.70;;;;;;4916375;29;20287;-88
2023/04/14 07:54:30;;;;;;;26.60;24.10;;;7.50;93.50;;;;;;4915753;29;20224;-87
2023/04/14 07:56:56;;;;;;;28.20;25.33;;;7.60;93.10;;;;;;4916268;29;20232;-88
2023/04/14 07:59:22;;;;;;;30.80;22.93;;;7.80;92.70;;;;;;4917789;29;20535;-88
2023/04/14 08:01:47;;;;;;;27.27;24.87;;;7.90;92.20;;;;;;4918047;29;20258;-88
2023/04/14 08:04:13;;;;;;;25.40;22.80;;;8.10;92.10;;;;;;4916640;29;20231;-87
2023/04/14 08:06:39;;;;;;;24.83;22.83;;;8.20;91.70;;;;;;4917837;29;20177;-87
2023/04/14 08:09:04;;;;;;;28.20;22.63;;;8.40;91.40;;;;;;4916482;29;20224;-87
2023/04/14 08:11:30;;;;;;;19.80;18.10;;;8.60;90.90;;;;;;4916283;29;20176;-88
2023/04/14 08:13:55;;;;;;;20.73;18.63;;;8.70;90.40;;;;;;4917595;29;20227;-89
2023/04/14 08:16:21;;;;;;;21.33;19.23;;;8.80;89.80;;;;;;4918003;29;20228;-87
2023/04/14 08:18:47;;;;;;;22.27;19.37;;;8.90;89.50;;;;;;4916377;29;20271;-88
2023/04/14 08:21:13;;;;;;;22.63;20.20;;;8.90;89.10;;;;;;4917444;29;20184;-87
2023/04/14 08:23:38;;;;;;;24.33;16.63;;;9.10;89.10;;;;;;4916151;29;20687;-87
2023/04/14 08:26:04;;;;;;;15.93;14.30;;;9.20;88.60;;;;;;4916218;29;20181;-87
2023/04/14 08:28:29;;;;;;;14.93;12.27;;;9.40;87.90;;;;;;4915948;29;20176;-87
2023/04/14 08:30:55;;;;;;;12.60;11.03;;;9.40;86.30;;;;;;4915960;29;20188;-87
2023/04/14 08:33:20;;;;;;;13.17;11.60;;;9.60;85.70;;;;;;4915972;29;20348;-87
2023/04/14 08:35:46;;;;;;;13.50;11.17;;;9.80;84.60;;;;;;4917247;29;20177;-87
2023/04/14 08:38:12;;;;;;;12.30;11.10;;;9.80;83.40;;;;;;4916507;29;20184;-87
2023/04/14 08:40:39;;;;;;;15.00;11.63;;;10.00;83.60;;;;;;4915933;29;20272;-87
2023/04/14 08:43:05;;;;;;;15.63;12.83;;;10.00;82.60;;;;;;4915884;29;20208;-87
2023/04/14 08:45:32;;;;;;;13.27;11.97;;;10.20;83.10;;;;;;4916088;29;20176;-88
2023/04/14 08:47:58;;;;;;;13.80;12.50;;;10.30;82.20;;;;;;4915815;29;20172;-87
2023/04/14 08:50:48;;;;;;;27.07;13.77;;;10.30;81.00;;;;;;4916213;29;20556;-87
2023/04/14 08:53:15;;;;;;;16.10;12.97;;;10.50;81.30;;;;;;4915828;29;20223;-87
2023/04/14 08:55:41;;;;;;;17.20;13.93;;;10.60;79.80;;;;;;4915893;29;20280;-88
2023/04/14 08:58:09;;;;;;;15.63;12.53;;;10.70;78.40;;;;;;4915871;29;20212;-88
2023/04/14 09:00:43;;;;;;;22.77;13.83;;;10.80;78.90;;;;;;4916918;29;20181;-88
2023/04/14 09:03:12;;;;;;;14.57;11.70;;;10.70;76.70;;;;;;4915625;29;20588;-88
2023/04/14 09:05:40;;;;;;;17.40;13.67;;;10.80;75.80;;;;;;4916603;29;20275;-88
2023/04/14 09:08:05;;;;;;;14.83;12.40;;;10.90;76.60;;;;;;4920651;29;20173;-87
2023/04/14 09:10:31;;;;;;;15.13;13.63;;;10.80;73.60;;;;;;4919523;29;20187;-88
2023/04/14 09:12:57;;;;;;;13.70;12.20;;;10.90;73.80;;;;;;4920537;29;20205;-88
2023/04/14 09:15:26;;;;;;;15.53;12.97;;;11.00;74.00;;;;;;4919459;29;20215;-89
2023/04/14 09:17:52;;;;;;;15.87;12.83;;;11.00;73.50;;;;;;4920396;29;20648;-89
2023/04/14 09:20:18;;;;;;;13.87;12.57;;;11.00;73.60;;;;;;4919135;29;20328;-88
2023/04/14 09:22:44;;;;;;;18.20;12.10;;;11.20;72.70;;;;;;4920197;29;20705;-89
2023/04/14 09:25:11;;;;;;;13.87;12.30;;;11.20;71.60;;;;;;4919177;29;20272;-89
2023/04/14 09:27:37;;;;;;;13.07;12.07;;;11.20;71.50;;;;;;4919020;29;20177;-89
2023/04/14 09:30:03;;;;;;;17.07;14.00;;;11.30;70.70;;;;;;4919103;29;20177;-89
2023/04/14 09:32:29;;;;;;;16.27;13.73;;;11.20;69.80;;;;;;4918818;29;20205;-88
2023/04/14 09:34:55;;;;;;;20.97;13.27;;;11.20;71.50;;;;;;4920079;29;20176;-88
2023/04/14 09:37:21;;;;;;;18.27;13.07;;;11.30;71.00;;;;;;4918931;29;20196;-88
2023/04/14 09:39:50;;;;;;;17.33;13.47;;;11.30;70.60;;;;;;4920181;29;20180;-89
2023/04/14 09:42:16;;;;;;;14.40;13.20;;;11.30;69.30;;;;;;4919041;29;20212;-87
2023/04/14 09:44:55;;;;;;;13.50;12.10;;;11.30;69.10;;;;;;4918940;29;20204;-87
2023/04/14 09:47:21;;;;;;;14.90;13.60;;;11.50;69.60;;;;;;4919083;29;20212;-88
2023/04/14 09:49:58;;;;;;;16.30;14.10;;;11.60;67.20;;;;;;4920015;29;20224;-87
2023/04/14 09:52:44;;;;;;;15.60;14.03;;;11.50;68.00;;;;;;4918846;29;20231;-88
2023/04/14 09:55:14;;;;;;;17.77;14.93;;;11.50;68.00;;;;;;4918643;29;20181;-88
2023/04/14 09:57:41;;;;;;;16.03;14.53;;;11.50;66.40;;;;;;4918634;29;20184;-88
2023/04/14 10:00:30;;;;;;;18.43;15.33;;;11.70;66.70;;;;;;4919903;29;20184;-89
2023/04/14 10:02:57;;;;;;;17.80;15.47;;;11.70;66.70;;;;;;4918519;29;20687;-89
2023/04/14 10:05:27;;;;;;;22.07;14.33;;;11.70;66.90;;;;;;4918441;29;20180;-90
2023/04/14 10:07:54;;;;;;;18.47;16.60;;;11.90;67.90;;;;;;4919396;29;20204;-89
2023/04/14 10:10:20;;;;;;;18.03;16.13;;;11.90;63.90;;;;;;4918572;29;20181;-87
2023/04/14 10:12:45;;;;;;;18.00;16.30;;;12.00;61.70;;;;;;4918023;29;20714;-88
2023/04/14 10:15:13;;;;;;;18.20;16.00;;;12.00;63.70;;;;;;4917959;29;20184;-88
2023/04/14 10:17:39;;;;;;;17.17;15.57;;;12.10;64.80;;;;;;4918608;29;20264;-88
2023/04/14 10:20:05;;;;;;;19.20;14.73;;;12.10;63.60;;;;;;4918123;29;20192;-88
2023/04/14 10:22:31;;;;;;;16.37;14.77;;;12.20;64.80;;;;;;4917871;29;20239;-87
2023/04/14 10:25:00;;;;;;;17.30;14.67;;;12.30;65.50;;;;;;4919591;29;20667;-87
2023/04/14 10:27:28;;;;;;;18.33;14.50;;;12.40;64.20;;;;;;4919286;29;20192;-86
2023/04/14 10:29:54;;;;;;;15.90;14.40;;;12.40;63.30;;;;;;4917861;29;20180;-86
2023/04/14 10:32:21;;;;;;;16.47;14.97;;;12.50;63.50;;;;;;4919029;29;20745;-87
2023/04/14 10:34:58;;;;;;;17.80;15.97;;;12.60;64.60;;;;;;4919179;29;20176;-87
2023/04/14 10:37:24;;;;;;;17.43;15.73;;;12.50;58.40;;;;;;4919080;29;20171;-86
2023/04/14 10:39:55;;;;;;;15.93;14.53;;;12.60;61.20;;;;;;4917945;29;20564;-86
2023/04/14 10:42:20;;;;;;;16.77;15.50;;;12.50;55.20;;;;;;4918755;29;20679;-86
2023/04/14 10:45:04;;;;;;;17.97;15.77;;;12.50;54.50;;;;;;4918869;29;20206;-88
2023/04/14 10:47:31;;;;;;;15.70;14.50;;;12.70;57.80;;;;;;4917712;29;20181;-87
2023/04/14 10:50:03;;;;;;;16.27;14.87;;;12.70;55.90;;;;;;4917518;29;20183;-86
2023/04/14 10:52:28;;;;;;;16.57;14.97;;;12.70;59.50;;;;;;4917428;29;20575;-87
2023/04/14 10:55:00;;;;;;;16.67;15.03;;;12.60;56.40;;;;;;4917465;29;20184;-87
2023/04/14 10:57:29;;;;;;;17.13;14.47;;;12.80;58.20;;;;;;4918260;29;20252;-87
2023/04/14 10:59:56;;;;;;;18.50;15.33;;;12.80;58.20;;;;;;4917406;29;20606;-87
2023/04/14 11:02:31;;;;;;;16.97;15.30;;;12.90;58.90;;;;;;4918388;29;20675;-87
2023/04/14 11:04:58;;;;;;;16.20;14.70;;;12.90;58.90;;;;;;4917294;29;20204;-87
2023/04/14 11:07:24;;;;;;;16.23;14.43;;;12.80;56.40;;;;;;4917948;29;20177;-87
2023/04/14 11:09:50;;;;;;;20.17;15.53;;;12.80;57.20;;;;;;4917266;29;20157;-87
2023/04/14 11:12:23;;;;;;;15.40;14.10;;;12.80;57.00;;;;;;4916982;29;20207;-87
2023/04/14 11:14:53;;;;;;;15.67;14.37;;;12.80;58.30;;;;;;4917014;29;20180;-87
2023/04/14 11:17:20;;;;;;;17.03;15.37;;;12.90;59.30;;;;;;4917081;29;20169;-87
2023/04/14 11:19:46;;;;;;;15.43;14.13;;;13.00;60.50;;;;;;4918173;29;20606;-87
2023/04/14 11:22:12;;;;;;;17.40;15.57;;;13.10;58.80;;;;;;4916737;29;20203;-86
2023/04/14 11:24:39;;;;;;;15.30;14.00;;;13.00;60.10;;;;;;4917000;29;20683;-87
2023/04/14 11:27:04;;;;;;;16.90;15.07;;;13.10;58.00;;;;;;4916860;29;20187;-86
2023/04/14 11:29:30;;;;;;;15.53;14.20;;;13.00;57.10;;;;;;4915925;29;20181;-86
2023/04/14 11:32:04;;;;;;;16.23;14.90;;;13.10;57.40;;;;;;4916654;29;20177;-87
2023/04/14 11:34:30;;;;;;;16.93;15.33;;;13.10;57.00;;;;;;4917005;29;20187;-87
2023/04/14 11:36:55;;;;;;;17.37;15.93;;;13.00;55.00;;;;;;4916757;29;20185;-87
2023/04/14 11:39:22;;;;;;;18.63;15.33;;;13.00;55.90;;;;;;4916825;29;20742;-87
2023/04/14 11:41:49;;;;;;;17.23;15.73;;;13.00;58.10;;;;;;4916639;29;20671;-86
2023/04/14 11:44:17;;;;;;;17.07;15.60;;;13.00;56.90;;;;;;4916347;29;20201;-86
2023/04/14 11:46:42;;;;;;;15.97;14.37;;;13.10;57.40;;;;;;4916488;29;20184;-86
2023/04/14 11:49:08;;;;;;;16.73;14.60;;;13.20;55.40;;;;;;4917692;29;20671;-87
2023/04/14 11:51:33;;;;;;;17.50;15.20;;;13.30;57.10;;;;;;4916438;29;20610;-86
2023/04/14 11:53:59;;;;;;;16.70;15.20;;;13.40;57.20;;;;;;4917543;29;20729;-87
2023/04/14 11:56:26;;;;;;;15.47;14.27;;;13.50;58.00;;;;;;4917482;29;20659;-87
2023/04/14 11:59:01;;;;;;;15.40;13.80;;;13.60;55.70;;;;;;4916465;29;20211;-87
2023/04/14 12:01:28;;;;;;;15.87;14.60;;;13.60;56.10;;;;;;4916581;29;20172;-87
2023/04/14 12:03:54;;;;;;;16.60;14.57;;;13.50;55.10;;;;;;4916356;29;20208;-87
2023/04/14 12:06:19;;;;;;;15.80;14.40;;;13.40;50.70;;;;;;4916281;29;20611;-88
2023/04/14 12:08:55;;;;;;;16.00;14.53;;;13.70;53.90;;;;;;4916430;29;20176;-88
2023/04/14 12:11:21;;;;;;;15.97;14.63;;;13.70;54.30;;;;;;4916339;29;20199;-87
2023/04/14 12:13:51;;;;;;;17.23;15.63;;;13.60;52.90;;;;;;4916181;29;20254;-87
2023/04/14 12:16:17;;;;;;;16.67;15.03;;;13.60;57.30;;;;;;4917460;29;20180;-86
2023/04/14 12:18:43;;;;;;;16.30;14.40;;;13.50;54.30;;;;;;4916667;29;20192;-87
2023/04/14 12:21:09;;;;;;;16.53;15.13;;;13.40;52.50;;;;;;4917618;29;20177;-87
2023/04/14 12:23:36;;;;;;;16.97;15.20;;;13.40;55.20;;;;;;4917207;29;20212;-87
2023/04/14 12:26:02;;;;;;;15.97;14.73;;;13.50;56.60;;;;;;4916147;29;20187;-87
2023/04/14 12:28:28;;;;;;;16.53;14.90;;;13.40;54.60;;;;;;4915947;29;20267;-87
2023/04/14 12:31:02;;;;;;;15.23;14.03;;;13.30;53.00;;;;;;4917152;29;20177;-87
2023/04/14 12:33:29;;;;;;;15.70;14.40;;;13.20;53.90;;;;;;4917295;29;20189;-86
2023/04/14 12:36:11;;;;;;;15.13;14.00;;;13.20;55.50;;;;;;4917468;29;20177;-87
2023/04/14 12:38:40;;;;;;;15.67;14.33;;;13.10;56.80;;;;;;4917243;29;20651;-87